Time;durP1;ratioP1;P1;durP2;ratioP2;P2;SDS_P1;SDS_P2;PMS_P1;PMS_P2;Temp;Humidity;BMP_temperature;BMP_pressure;BME280_temperature;BME280_humidity;BME280_pressure;Samples;Min_cycle;Max_cycle;Signal;HPM_P1;HPM_P2
2022/03/04 00:02:21;;;;;;;2.80;0.93;;;4.80;99.90;;;;;;4954349;29;20460;-71
2022/03/04 00:04:49;;;;;;;1.37;1.27;;;4.80;99.90;;;;;;4936904;29;21049;-71
2022/03/04 00:07:19;;;;;;;2.50;1.07;;;4.80;99.90;;;;;;4936967;29;20462;-70
2022/03/04 00:09:46;;;;;;;0.50;0.20;;;4.80;99.90;;;;;;4936894;29;20458;-71
2022/03/04 00:12:14;;;;;;;0.60;0.40;;;4.90;99.90;;;;;;4936300;29;20544;-71
2022/03/04 00:14:42;;;;;;;2.40;1.30;;;4.80;99.90;;;;;;4936421;29;20896;-72
2022/03/04 00:17:10;;;;;;;0.50;0.17;;;4.80;99.90;;;;;;4946724;29;20461;-71
2022/03/04 00:19:38;;;;;;;3.70;3.50;;;4.80;99.90;;;;;;4955118;29;20480;-70
2022/03/04 00:22:06;;;;;;;0.60;0.37;;;4.80;99.90;;;;;;4937252;29;20464;-71
2022/03/04 00:24:35;;;;;;;0.60;0.20;;;4.70;99.90;;;;;;4938521;29;20484;-72
2022/03/04 00:27:04;;;;;;;2.00;1.80;;;4.70;99.90;;;;;;4941354;29;21010;-72
2022/03/04 00:29:31;;;;;;;2.20;2.00;;;4.60;99.90;;;;;;4941875;29;20457;-71
2022/03/04 00:31:59;;;;;;;1.57;0.50;;;4.60;99.90;;;;;;4937449;29;20550;-70
2022/03/04 00:34:27;;;;;;;4.20;1.60;;;4.60;99.90;;;;;;4936057;29;20470;-73
2022/03/04 00:36:55;;;;;;;2.43;0.80;;;4.60;99.90;;;;;;4936556;29;20516;-71
2022/03/04 00:39:23;;;;;;;1.00;0.70;;;4.60;99.90;;;;;;4936191;29;20608;-72
2022/03/04 00:41:52;;;;;;;0.50;0.10;;;4.60;99.90;;;;;;4935662;29;20501;-71
2022/03/04 00:44:20;;;;;;;0.70;0.67;;;4.50;99.90;;;;;;4935523;29;20469;-72
2022/03/04 00:46:48;;;;;;;1.37;1.30;;;4.60;99.90;;;;;;4937555;29;20990;-71
2022/03/04 00:49:16;;;;;;;2.03;1.90;;;4.50;99.90;;;;;;4934105;29;21072;-70
2022/03/04 00:51:44;;;;;;;4.20;1.27;;;4.50;99.90;;;;;;4923385;29;20461;-71
2022/03/04 00:54:13;;;;;;;0.60;0.57;;;4.50;99.90;;;;;;4916579;29;20822;-70
2022/03/04 00:56:42;;;;;;;0.60;0.20;;;4.50;99.90;;;;;;4917258;29;20464;-71
2022/03/04 00:59:11;;;;;;;1.03;0.97;;;4.50;99.90;;;;;;4916941;29;20461;-72
2022/03/04 01:01:39;;;;;;;4.97;0.83;;;4.40;99.90;;;;;;4927750;29;20461;-70
2022/03/04 01:04:07;;;;;;;2.27;1.53;;;4.40;99.90;;;;;;4935498;29;20558;-72
2022/03/04 01:06:35;;;;;;;0.70;0.57;;;4.40;99.90;;;;;;4935838;29;20528;-72
2022/03/04 01:09:04;;;;;;;0.50;0.10;;;4.30;99.90;;;;;;4935643;29;20453;-72
2022/03/04 01:11:32;;;;;;;0.83;0.83;;;4.30;99.90;;;;;;4925435;29;20455;-72
2022/03/04 01:13:59;;;;;;;0.60;0.47;;;4.30;99.90;;;;;;4916370;29;20563;-72
2022/03/04 01:16:29;;;;;;;1.30;1.20;;;4.30;99.90;;;;;;4916797;29;21043;-72
2022/03/04 01:18:57;;;;;;;1.50;1.00;;;4.30;99.90;;;;;;4915994;29;20459;-71
2022/03/04 01:21:24;;;;;;;2.70;1.13;;;4.30;99.90;;;;;;4925867;29;20480;-71
2022/03/04 01:23:52;;;;;;;0.57;0.40;;;4.20;99.90;;;;;;4935635;29;20474;-71
2022/03/04 01:26:20;;;;;;;0.53;0.20;;;4.20;99.90;;;;;;4933874;29;20542;-71
2022/03/04 01:28:48;;;;;;;1.30;1.17;;;4.20;99.90;;;;;;4937544;29;20448;-70
2022/03/04 01:31:16;;;;;;;0.50;0.10;;;4.10;99.90;;;;;;4936366;29;20460;-70
2022/03/04 01:33:48;;;;;;;6.93;2.93;;;4.10;99.90;;;;;;4937433;29;20475;-72
2022/03/04 01:36:16;;;;;;;0.90;0.90;;;4.10;99.90;;;;;;4942701;29;20692;-72
2022/03/04 01:38:44;;;;;;;1.53;1.43;;;4.10;99.90;;;;;;4945170;29;20523;-71
2022/03/04 01:41:12;;;;;;;0.70;0.43;;;4.10;99.90;;;;;;4947944;29;20532;-71
2022/03/04 01:43:40;;;;;;;0.60;0.47;;;4.10;99.90;;;;;;4948148;29;20501;-71
2022/03/04 01:46:15;;;;;;;0.60;0.43;;;3.60;99.90;;;;;;4945409;29;20447;-71
2022/03/04 01:48:45;;;;;;;3.13;2.87;;;4.10;99.90;;;;;;4946937;29;20816;-72
2022/03/04 01:51:14;;;;;;;1.80;1.70;;;4.10;99.90;;;;;;4942464;29;20983;-71
2022/03/04 01:53:43;;;;;;;3.30;3.07;;;4.00;99.90;;;;;;4938732;29;20471;-71
2022/03/04 01:56:10;;;;;;;0.60;0.20;;;4.00;99.90;;;;;;4935075;29;20477;-71
2022/03/04 01:58:39;;;;;;;4.80;2.63;;;4.00;99.90;;;;;;4934952;29;20462;-71
2022/03/04 02:01:06;;;;;;;1.17;0.67;;;4.00;99.90;;;;;;4934399;29;20487;-72
2022/03/04 02:03:35;;;;;;;3.23;2.30;;;4.00;99.90;;;;;;4934828;29;20987;-72
2022/03/04 02:06:03;;;;;;;2.10;1.90;;;4.00;99.90;;;;;;4934819;29;20443;-71
2022/03/04 02:08:32;;;;;;;4.13;2.03;;;4.00;99.90;;;;;;4943888;29;20541;-71
2022/03/04 02:11:01;;;;;;;6.20;1.50;;;4.00;99.90;;;;;;4936855;29;20439;-72
2022/03/04 02:13:28;;;;;;;2.10;2.00;;;4.00;99.90;;;;;;4934705;29;20822;-71
2022/03/04 02:15:56;;;;;;;1.53;1.43;;;4.00;99.90;;;;;;4935914;29;20554;-70
2022/03/04 02:18:24;;;;;;;0.60;0.33;;;4.00;99.90;;;;;;4942211;29;20461;-69
2022/03/04 02:20:53;;;;;;;0.50;0.10;;;3.90;99.90;;;;;;4934545;29;20486;-73
2022/03/04 02:23:23;;;;;;;3.60;3.40;;;3.90;99.90;;;;;;4934532;29;20987;-72
2022/03/04 02:25:52;;;;;;;4.03;1.63;;;3.90;99.90;;;;;;4933118;29;20571;-72
2022/03/04 02:28:22;;;;;;;0.50;0.20;;;3.90;99.90;;;;;;4935650;29;20459;-70
2022/03/04 02:30:50;;;;;;;0.60;0.53;;;3.90;99.90;;;;;;4934824;29;20470;-71
2022/03/04 02:33:17;;;;;;;4.03;3.00;;;3.90;99.90;;;;;;4922596;29;20453;-72
2022/03/04 02:35:46;;;;;;;2.07;1.97;;;3.80;99.90;;;;;;4915373;29;20462;-72
2022/03/04 02:38:14;;;;;;;0.50;0.10;;;3.80;99.90;;;;;;4915453;29;20452;-70
2022/03/04 02:40:43;;;;;;;0.50;0.10;;;3.80;99.90;;;;;;4915743;29;20498;-71
2022/03/04 02:43:11;;;;;;;1.00;0.90;;;3.80;99.90;;;;;;4926146;29;20474;-71
2022/03/04 02:45:38;;;;;;;4.93;2.30;;;3.80;99.90;;;;;;4934188;29;20551;-72
2022/03/04 02:48:06;;;;;;;7.33;2.63;;;3.80;99.90;;;;;;4934703;29;20445;-72
2022/03/04 02:50:34;;;;;;;1.37;1.03;;;3.70;99.90;;;;;;4935170;29;20453;-72
2022/03/04 02:53:02;;;;;;;0.60;0.20;;;3.70;99.90;;;;;;4941488;29;20554;-71
2022/03/04 02:55:30;;;;;;;5.10;4.60;;;3.70;99.90;;;;;;4943543;29;20467;-72
2022/03/04 02:57:59;;;;;;;1.40;1.30;;;3.60;99.90;;;;;;4936421;29;20838;-71
2022/03/04 03:00:29;;;;;;;0.90;0.60;;;3.60;99.90;;;;;;4922800;29;20487;-71
2022/03/04 03:02:57;;;;;;;0.57;0.40;;;3.60;99.90;;;;;;4914903;29;20472;-72
2022/03/04 03:05:25;;;;;;;0.60;0.20;;;3.50;99.90;;;;;;4914501;29;20478;-70
2022/03/04 03:07:53;;;;;;;5.03;3.53;;;3.50;99.90;;;;;;4915289;29;21026;-71
2022/03/04 03:10:21;;;;;;;0.87;0.87;;;3.50;99.90;;;;;;4924898;29;20458;-71
2022/03/04 03:12:49;;;;;;;1.17;0.57;;;3.50;99.90;;;;;;4934777;29;20462;-72
2022/03/04 03:15:18;;;;;;;4.47;4.10;;;3.40;99.90;;;;;;4951166;23;20509;-69
2022/03/04 03:17:46;;;;;;;0.60;0.30;;;3.40;99.90;;;;;;4937061;29;20971;-70
2022/03/04 03:20:14;;;;;;;9.50;2.03;;;3.30;99.90;;;;;;4938543;29;20564;-70
2022/03/04 03:22:42;;;;;;;7.70;1.60;;;3.30;99.90;;;;;;4956515;29;20974;-69
2022/03/04 03:25:10;;;;;;;3.30;3.00;;;3.30;99.90;;;;;;4956110;29;20565;-68
2022/03/04 03:27:38;;;;;;;0.50;0.10;;;3.20;99.90;;;;;;4937665;29;20550;-69
2022/03/04 03:30:07;;;;;;;0.90;0.37;;;3.30;99.90;;;;;;4945813;29;20537;-68
2022/03/04 03:32:38;;;;;;;0.60;0.43;;;3.30;99.90;;;;;;4958434;29;20547;-69
2022/03/04 03:35:07;;;;;;;0.70;0.30;;;3.30;99.90;;;;;;4957359;29;20909;-71
2022/03/04 03:37:36;;;;;;;0.50;0.10;;;3.30;99.90;;;;;;4954075;29;20546;-71
2022/03/04 03:40:06;;;;;;;0.50;0.10;;;3.20;99.90;;;;;;4942938;29;20450;-69
2022/03/04 03:42:34;;;;;;;45.90;8.83;;;3.10;99.90;;;;;;4937135;29;20484;-70
2022/03/04 03:45:02;;;;;;;0.50;0.10;;;3.10;99.90;;;;;;4937293;29;20475;-70
2022/03/04 03:47:30;;;;;;;2.40;2.30;;;3.10;99.90;;;;;;4937253;29;20811;-70
2022/03/04 03:49:59;;;;;;;0.93;0.93;;;3.10;99.90;;;;;;4937606;29;20452;-68
2022/03/04 03:52:27;;;;;;;0.70;0.40;;;3.10;99.90;;;;;;4937813;29;20448;-69
2022/03/04 03:54:55;;;;;;;3.23;3.00;;;3.00;99.90;;;;;;4939258;29;20461;-71
2022/03/04 03:57:23;;;;;;;3.07;2.53;;;3.00;99.90;;;;;;4938818;29;20485;-70
2022/03/04 03:59:51;;;;;;;0.70;0.53;;;2.90;99.90;;;;;;4943582;29;20550;-70
2022/03/04 04:02:18;;;;;;;1.00;0.90;;;2.90;99.90;;;;;;4948903;29;20480;-69
2022/03/04 04:04:46;;;;;;;2.03;1.90;;;2.90;99.90;;;;;;4939498;29;20519;-70
2022/03/04 04:07:16;;;;;;;4.20;2.40;;;2.90;99.90;;;;;;4938142;29;20837;-72
2022/03/04 04:09:44;;;;;;;1.13;1.03;;;2.80;99.90;;;;;;4940739;29;20474;-69
2022/03/04 04:12:13;;;;;;;0.50;0.10;;;2.80;99.90;;;;;;4957510;29;20455;-70
2022/03/04 04:14:40;;;;;;;6.53;1.70;;;2.80;99.90;;;;;;4955476;29;20888;-70
2022/03/04 04:17:08;;;;;;;2.67;1.93;;;2.80;99.90;;;;;;4956473;29;20461;-69
2022/03/04 04:19:36;;;;;;;0.63;0.63;;;2.80;99.90;;;;;;4953324;29;20460;-70
2022/03/04 04:22:04;;;;;;;6.17;4.27;;;2.70;99.90;;;;;;4936298;29;20500;-70
2022/03/04 04:24:34;;;;;;;0.50;0.10;;;2.70;99.90;;;;;;4936411;29;20477;-70
2022/03/04 04:27:02;;;;;;;1.70;0.63;;;2.70;99.90;;;;;;4938703;29;20446;-70
2022/03/04 04:29:30;;;;;;;1.17;1.07;;;2.60;99.90;;;;;;4943291;29;20452;-70
2022/03/04 04:31:57;;;;;;;1.17;1.07;;;2.60;99.90;;;;;;4959676;29;20449;-68
2022/03/04 04:34:25;;;;;;;4.23;3.83;;;2.60;99.90;;;;;;4958849;29;20469;-70
2022/03/04 04:36:53;;;;;;;0.50;0.10;;;2.50;99.90;;;;;;4955634;29;20949;-70
2022/03/04 04:39:21;;;;;;;1.13;0.90;;;2.50;99.90;;;;;;4954942;29;20891;-69
2022/03/04 04:41:50;;;;;;;1.13;1.03;;;2.40;99.90;;;;;;4917347;29;20504;-70
2022/03/04 04:44:18;;;;;;;1.40;0.83;;;2.40;99.90;;;;;;4917411;29;20473;-70
2022/03/04 04:46:46;;;;;;;10.63;3.03;;;2.40;99.90;;;;;;4917291;29;20470;-68
2022/03/04 04:49:14;;;;;;;1.87;0.77;;;2.30;1.00;;;;;;4920232;29;20991;-69
2022/03/04 04:51:42;;;;;;;1.73;1.23;;;2.30;1.00;;;;;;4956103;29;20458;-70
2022/03/04 04:54:10;;;;;;;1.07;0.87;;;2.30;1.00;;;;;;4955250;29;20958;-71
2022/03/04 04:56:37;;;;;;;2.00;1.77;;;2.30;1.00;;;;;;4955804;29;20463;-70
2022/03/04 04:59:07;;;;;;;0.50;0.10;;;2.20;1.00;;;;;;4955178;29;20449;-70
2022/03/04 05:01:34;;;;;;;0.83;0.73;;;2.20;1.00;;;;;;4936231;29;20563;-70
2022/03/04 05:04:03;;;;;;;0.60;0.30;;;2.20;1.00;;;;;;4936417;29;20551;-69
2022/03/04 05:06:31;;;;;;;0.50;0.10;;;2.20;1.00;;;;;;4936171;29;20459;-70
2022/03/04 05:08:59;;;;;;;1.50;1.30;;;2.20;1.00;;;;;;4938262;29;20888;-70
2022/03/04 05:11:26;;;;;;;4.70;3.33;;;2.20;1.00;;;;;;4956510;29;20473;-69
2022/03/04 05:13:55;;;;;;;0.77;0.77;;;2.20;1.00;;;;;;4955766;29;20575;-71
2022/03/04 05:16:24;;;;;;;0.50;0.20;;;2.10;1.00;;;;;;4955664;29;20459;-71
2022/03/04 05:18:52;;;;;;;2.90;2.57;;;2.20;1.00;;;;;;4955445;29;20451;-69
2022/03/04 05:21:20;;;;;;;12.20;3.27;;;2.10;1.00;;;;;;4955688;29;20451;-68
2022/03/04 05:24:03;;;;;;;1.63;0.93;;;2.10;1.00;;;;;;4955983;29;20450;-70
2022/03/04 05:26:33;;;;;;;1.30;0.60;;;2.20;1.00;;;;;;4955577;29;20466;-71
2022/03/04 05:29:03;;;;;;;3.33;1.87;;;2.10;1.00;;;;;;4954187;29;20451;-68
2022/03/04 05:31:32;;;;;;;0.67;0.47;;;2.00;1.00;;;;;;4931280;29;20469;-70
2022/03/04 05:34:00;;;;;;;3.20;2.13;;;2.00;1.00;;;;;;4936329;29;20912;-71
2022/03/04 05:36:28;;;;;;;1.63;1.33;;;2.00;1.00;;;;;;4935159;29;20534;-70
2022/03/04 05:38:56;;;;;;;2.43;1.30;;;2.00;1.00;;;;;;4935780;29;20449;-70
2022/03/04 05:41:24;;;;;;;1.63;1.53;;;1.90;1.00;;;;;;4954183;29;20462;-72
2022/03/04 05:43:53;;;;;;;0.50;0.20;;;;;;;;;;4954336;29;20543;-72
2022/03/04 05:46:21;;;;;;;0.50;0.27;;;1.90;1.00;;;;;;4956872;29;20447;-72
2022/03/04 05:48:50;;;;;;;0.50;0.20;;;1.80;1.00;;;;;;4955880;29;20545;-72
2022/03/04 05:51:19;;;;;;;0.63;0.50;;;1.90;1.00;;;;;;4937415;29;20899;-70
2022/03/04 05:53:49;;;;;;;3.40;2.47;;;1.90;1.00;;;;;;4937826;29;20823;-72
2022/03/04 05:56:17;;;;;;;1.90;1.70;;;1.80;1.00;;;;;;4937957;29;20469;-71
2022/03/04 05:58:45;;;;;;;1.27;1.17;;;1.80;1.00;;;;;;4937774;29;20460;-72
2022/03/04 06:01:13;;;;;;;0.60;0.10;;;1.80;1.00;;;;;;4955303;29;20732;-72
2022/03/04 06:03:41;;;;;;;3.40;0.77;;;1.80;1.00;;;;;;4955154;29;20484;-71
2022/03/04 06:06:12;;;;;;;0.50;0.10;;;1.80;1.00;;;;;;4955003;29;20542;-71
2022/03/04 06:08:40;;;;;;;1.70;1.60;;;1.70;1.00;;;;;;4946981;29;20457;-71
2022/03/04 06:11:08;;;;;;;0.50;0.10;;;1.70;1.00;;;;;;4937442;29;20466;-72
2022/03/04 06:13:36;;;;;;;0.97;0.80;;;1.70;1.00;;;;;;4936378;29;20445;-72
2022/03/04 06:16:05;;;;;;;3.50;2.30;;;1.70;1.00;;;;;;4936229;29;20468;-72
2022/03/04 06:18:33;;;;;;;0.50;0.10;;;1.70;1.00;;;;;;4941690;29;20465;-72
2022/03/04 06:21:02;;;;;;;0.50;0.13;;;1.70;1.00;;;;;;4934675;29;20830;-71
2022/03/04 06:23:31;;;;;;;0.70;0.60;;;1.80;1.00;;;;;;4935595;29;20490;-71
2022/03/04 06:25:59;;;;;;;0.50;0.10;;;1.90;1.00;;;;;;4943065;29;20483;-70
2022/03/04 06:28:28;;;;;;;0.60;0.50;;;1.90;1.00;;;;;;4935043;29;20453;-71
2022/03/04 06:30:56;;;;;;;0.77;0.50;;;1.90;1.00;;;;;;4935968;29;20504;-72
2022/03/04 06:33:35;;;;;;;4.77;4.37;;;1.80;1.00;;;;;;4936642;29;20473;-72
2022/03/04 06:36:05;;;;;;;0.50;0.27;;;1.80;1.00;;;;;;4935319;29;20511;-71
2022/03/04 06:38:36;;;;;;;0.60;0.60;;;1.80;1.00;;;;;;4935448;29;20514;-72
2022/03/04 06:41:05;;;;;;;0.73;0.73;;;;;;;;;;4936101;29;20958;-72
2022/03/04 06:43:33;;;;;;;0.60;0.37;;;1.90;1.00;;;;;;4935572;29;20476;-73
2022/03/04 06:46:03;;;;;;;0.50;0.10;;;2.00;1.00;;;;;;4940731;29;20552;-72
2022/03/04 06:48:31;;;;;;;0.83;0.83;;;2.00;1.00;;;;;;4936389;29;20491;-72
2022/03/04 06:51:00;;;;;;;2.63;2.50;;;2.00;1.00;;;;;;4937799;29;20520;-72
2022/03/04 06:53:28;;;;;;;1.80;1.03;;;2.10;1.00;;;;;;4939405;29;20863;-72
2022/03/04 06:55:57;;;;;;;0.50;0.10;;;2.10;1.00;;;;;;4938942;29;20465;-72
2022/03/04 06:58:25;;;;;;;0.50;0.30;;;2.00;1.00;;;;;;4941011;29;20436;-72
2022/03/04 07:00:53;;;;;;;1.17;1.07;;;2.00;1.00;;;;;;4941331;29;20799;-73
2022/03/04 07:03:23;;;;;;;0.50;0.23;;;2.00;1.00;;;;;;4941193;29;20842;-73
2022/03/04 07:05:51;;;;;;;0.53;0.30;;;2.00;1.00;;;;;;4940084;29;20494;-73
2022/03/04 07:08:19;;;;;;;2.87;2.67;;;2.00;1.00;;;;;;4940841;29;20470;-74
2022/03/04 07:10:50;;;;;;;0.97;0.67;;;2.00;1.00;;;;;;4937465;29;20845;-73
2022/03/04 07:13:21;;;;;;;1.17;1.07;;;;;;;;;;4935776;29;20441;-72
2022/03/04 07:15:51;;;;;;;1.90;1.80;;;2.00;1.00;;;;;;4960026;29;20485;-72
2022/03/04 07:18:19;;;;;;;2.97;2.67;;;2.00;1.00;;;;;;4948948;29;20812;-72
2022/03/04 07:20:47;;;;;;;3.77;3.03;;;2.00;1.00;;;;;;4939090;29;20451;-71
2022/03/04 07:23:16;;;;;;;0.93;0.93;;;2.00;1.00;;;;;;4937340;29;20980;-71
2022/03/04 07:25:43;;;;;;;1.23;1.13;;;2.00;1.00;;;;;;4940507;29;21038;-71
2022/03/04 07:28:11;;;;;;;1.70;1.60;;;2.10;1.00;;;;;;4938637;29;20534;-70
2022/03/04 07:30:41;;;;;;;0.50;0.20;;;2.10;1.00;;;;;;4936598;29;20508;-72
2022/03/04 07:33:10;;;;;;;0.50;0.20;;;2.20;1.00;;;;;;4939673;29;20468;-72
2022/03/04 07:35:41;;;;;;;0.50;0.20;;;2.30;1.00;;;;;;4940653;29;20467;-72
2022/03/04 07:38:09;;;;;;;2.10;2.00;;;2.30;1.00;;;;;;4943244;29;20488;-70
2022/03/04 07:40:43;;;;;;;0.50;0.10;;;2.30;1.00;;;;;;4942772;29;20473;-71
2022/03/04 07:43:10;;;;;;;0.60;0.53;;;2.30;1.00;;;;;;4941783;29;20487;-72
2022/03/04 07:45:38;;;;;;;4.63;4.27;;;2.30;1.00;;;;;;4924986;29;20500;-72
2022/03/04 07:48:08;;;;;;;4.83;2.63;;;2.40;1.00;;;;;;4932638;29;20454;-73
2022/03/04 07:50:35;;;;;;;0.50;0.10;;;2.40;1.00;;;;;;4939367;29;20515;-72
2022/03/04 07:53:03;;;;;;;0.53;0.30;;;2.40;1.00;;;;;;4935650;29;20532;-73
2022/03/04 07:55:31;;;;;;;0.60;0.30;;;2.50;1.00;;;;;;4943160;29;20482;-72
2022/03/04 07:58:00;;;;;;;3.33;1.33;;;2.50;1.00;;;;;;4942018;29;20476;-73
2022/03/04 08:00:28;;;;;;;1.43;1.37;;;;;;;;;;4939359;29;20448;-70
2022/03/04 08:02:57;;;;;;;0.50;0.10;;;2.70;1.00;;;;;;4938580;29;20510;-72
2022/03/04 08:05:28;;;;;;;1.90;1.80;;;2.70;1.00;;;;;;4944803;29;20575;-72
2022/03/04 08:07:56;;;;;;;9.50;4.90;;;2.70;1.00;;;;;;4959422;29;20653;-73
2022/03/04 08:10:27;;;;;;;2.30;0.50;;;2.70;1.00;;;;;;4961142;29;20926;-72
2022/03/04 08:12:55;;;;;;;0.50;0.20;;;2.60;1.00;;;;;;4961246;29;20537;-72
2022/03/04 08:15:23;;;;;;;5.13;1.37;;;2.60;1.00;;;;;;4959234;29;20482;-72
2022/03/04 08:17:51;;;;;;;0.60;0.30;;;2.60;1.00;;;;;;4959737;29;20451;-73
2022/03/04 08:20:21;;;;;;;0.90;0.40;;;2.60;1.00;;;;;;4957251;29;20460;-72
2022/03/04 08:22:51;;;;;;;0.50;0.10;;;;;;;;;;4949699;29;20461;-73
2022/03/04 08:25:18;;;;;;;6.93;6.23;;;2.70;1.00;;;;;;4936588;29;20492;-72
2022/03/04 08:27:46;;;;;;;5.10;3.90;;;2.70;1.00;;;;;;4938132;29;20560;-71
2022/03/04 08:30:14;;;;;;;0.70;0.70;;;2.80;1.00;;;;;;4937706;29;20463;-72
2022/03/04 08:32:43;;;;;;;1.57;0.67;;;2.90;1.00;;;;;;4944695;29;20458;-72
2022/03/04 08:35:11;;;;;;;0.60;0.57;;;3.00;1.00;;;;;;4957179;29;20468;-72
2022/03/04 08:37:39;;;;;;;2.87;2.03;;;3.00;1.00;;;;;;4957225;29;20447;-72
2022/03/04 08:40:11;;;;;;;0.60;0.30;;;3.10;1.00;;;;;;4959148;29;20452;-72
2022/03/04 08:42:41;;;;;;;4.73;2.10;;;3.10;1.00;;;;;;4951370;29;20458;-73
2022/03/04 08:45:11;;;;;;;3.47;3.27;;;3.10;1.00;;;;;;4938145;29;20953;-71
2022/03/04 08:47:46;;;;;;;0.50;0.10;;;3.20;1.00;;;;;;4938783;29;20451;-72
2022/03/04 08:50:15;;;;;;;0.50;0.10;;;3.20;1.00;;;;;;4938349;29;20435;-72
2022/03/04 08:52:43;;;;;;;0.70;0.50;;;3.30;1.00;;;;;;4938838;29;20459;-71
2022/03/04 08:55:14;;;;;;;4.90;4.43;;;3.40;1.00;;;;;;4936966;29;20504;-72
2022/03/04 08:57:43;;;;;;;0.77;0.73;;;3.40;1.00;;;;;;4937259;29;20576;-72
2022/03/04 09:00:12;;;;;;;0.60;0.50;;;3.40;1.00;;;;;;4941242;29;20430;-71
2022/03/04 09:02:40;;;;;;;0.50;0.10;;;3.60;1.00;;;;;;4944353;29;20452;-72
2022/03/04 09:05:09;;;;;;;3.63;0.60;;;3.60;1.00;;;;;;4944953;29;20598;-73
2022/03/04 09:07:37;;;;;;;3.90;3.23;;;3.60;1.00;;;;;;4947540;29;20462;-72
2022/03/04 09:10:06;;;;;;;2.53;2.40;;;3.60;1.00;;;;;;4941773;29;20443;-72
2022/03/04 09:12:35;;;;;;;2.80;1.70;;;3.50;1.00;;;;;;4941282;29;20451;-73
2022/03/04 09:15:04;;;;;;;0.80;0.80;;;3.70;1.00;;;;;;4937813;29;20505;-72
2022/03/04 09:17:32;;;;;;;0.50;0.10;;;3.70;1.00;;;;;;4939230;29;20460;-72
2022/03/04 09:20:00;;;;;;;0.60;0.10;;;3.90;1.00;;;;;;4938398;29;20462;-72
2022/03/04 09:22:28;;;;;;;0.50;0.10;;;4.00;1.00;;;;;;4961321;23;20890;-76
2022/03/04 09:24:56;;;;;;;1.10;0.87;;;4.10;1.00;;;;;;4938762;29;20477;-75
2022/03/04 09:27:24;;;;;;;0.50;0.20;;;4.10;1.00;;;;;;4937974;29;20446;-77
2022/03/04 09:29:53;;;;;;;0.50;0.10;;;4.20;1.00;;;;;;4938629;29;20530;-76
2022/03/04 09:32:24;;;;;;;0.50;0.20;;;4.30;1.00;;;;;;4940394;29;20479;-75
2022/03/04 09:34:52;;;;;;;0.50;0.10;;;;;;;;;;4939785;29;20457;-76
2022/03/04 09:37:20;;;;;;;0.57;0.37;;;4.50;1.00;;;;;;4939657;29;20458;-74
2022/03/04 09:39:49;;;;;;;0.60;0.30;;;4.50;1.00;;;;;;4940524;29;20507;-75
2022/03/04 09:42:18;;;;;;;0.60;0.10;;;4.50;1.00;;;;;;4943239;29;20532;-74
2022/03/04 09:44:47;;;;;;;0.80;0.40;;;4.50;1.00;;;;;;4944879;29;20986;-74
2022/03/04 09:47:20;;;;;;;0.70;0.63;;;4.60;1.00;;;;;;4938179;29;20471;-75
2022/03/04 09:49:50;;;;;;;0.60;0.50;;;4.60;1.00;;;;;;4939115;29;20467;-75
2022/03/04 09:52:19;;;;;;;1.83;1.63;;;4.70;99.90;;;;;;4939018;29;21012;-75
2022/03/04 09:54:49;;;;;;;0.63;0.50;;;4.70;99.90;;;;;;4938379;29;20826;-75
2022/03/04 09:57:17;;;;;;;1.13;0.67;;;4.70;99.90;;;;;;4939565;29;20511;-74
2022/03/04 09:59:46;;;;;;;1.20;1.10;;;4.80;99.90;;;;;;4940230;29;20462;-74
2022/03/04 10:02:16;;;;;;;23.13;4.37;;;4.90;99.90;;;;;;4940519;29;20548;-74
2022/03/04 10:04:44;;;;;;;1.67;0.53;;;4.90;99.90;;;;;;4925271;29;20565;-78
2022/03/04 10:07:15;;;;;;;0.77;0.77;;;5.00;99.90;;;;;;4926766;29;20557;-74
2022/03/04 10:09:45;;;;;;;0.60;0.40;;;5.00;99.90;;;;;;4925034;29;20453;-74
2022/03/04 10:12:15;;;;;;;0.50;0.10;;;5.10;99.90;;;;;;4927356;29;20454;-75
2022/03/04 10:15:01;;;;;;;6.03;4.23;;;5.20;99.90;;;;;;4918210;29;20457;-75
2022/03/04 10:17:33;;;;;;;2.20;2.10;;;5.30;99.90;;;;;;4919876;29;20462;-74
2022/03/04 10:20:02;;;;;;;0.80;0.70;;;5.30;99.90;;;;;;4923588;29;20457;-73
2022/03/04 10:22:37;;;;;;;0.77;0.47;;;5.40;99.90;;;;;;4921636;29;21019;-75
2022/03/04 10:25:17;;;;;;;0.50;0.20;;;5.40;99.90;;;;;;4916060;29;20477;-73
2022/03/04 10:27:46;;;;;;;0.50;0.10;;;5.40;99.90;;;;;;4916275;29;20534;-74
2022/03/04 10:30:14;;;;;;;1.30;1.20;;;5.50;99.90;;;;;;4918772;29;20473;-73
2022/03/04 10:32:44;;;;;;;7.00;2.67;;;5.60;99.90;;;;;;4915650;29;20501;-72
2022/03/04 10:35:14;;;;;;;0.60;0.10;;;5.60;99.90;;;;;;4915409;29;20446;-75
2022/03/04 10:37:44;;;;;;;0.93;0.93;;;5.60;99.90;;;;;;4915622;29;20499;-75
2022/03/04 10:40:15;;;;;;;0.50;0.10;;;5.70;99.90;;;;;;4923204;29;20453;-75
2022/03/04 10:42:51;;;;;;;1.27;0.70;;;5.70;99.90;;;;;;4925160;29;20475;-74
2022/03/04 10:45:22;;;;;;;0.60;0.50;;;5.80;99.90;;;;;;4925921;29;20485;-75
2022/03/04 10:47:53;;;;;;;1.33;0.93;;;5.90;99.90;;;;;;4919318;29;20447;-74
2022/03/04 10:50:29;;;;;;;0.50;0.10;;;5.90;99.90;;;;;;4925812;29;20464;-74
2022/03/04 10:52:59;;;;;;;1.77;1.67;;;6.00;99.90;;;;;;4936607;29;20570;-75
2022/03/04 10:55:30;;;;;;;0.60;0.10;;;6.10;99.90;;;;;;4934942;29;20447;-75
2022/03/04 10:57:59;;;;;;;0.73;0.73;;;6.10;99.90;;;;;;4934832;29;20497;-74
2022/03/04 11:00:29;;;;;;;0.50;0.10;;;6.20;99.90;;;;;;4935191;29;20504;-75
2022/03/04 11:02:59;;;;;;;6.20;2.87;;;6.30;99.90;;;;;;4934853;29;20533;-76
2022/03/04 11:05:29;;;;;;;0.80;0.77;;;6.30;99.90;;;;;;4938442;29;20517;-77
2022/03/04 11:07:58;;;;;;;0.50;0.20;;;6.30;99.90;;;;;;4932088;29;20481;-74
2022/03/04 11:10:26;;;;;;;0.60;0.20;;;6.40;99.90;;;;;;4929487;29;20803;-74
2022/03/04 11:12:55;;;;;;;0.80;0.77;;;6.50;99.90;;;;;;4933598;29;20486;-74
2022/03/04 11:15:24;;;;;;;3.90;1.33;;;6.60;99.90;;;;;;4921007;29;20965;-74
2022/03/04 11:17:53;;;;;;;0.50;0.20;;;6.70;99.90;;;;;;4917759;29;20444;-75
2022/03/04 11:20:22;;;;;;;0.50;0.20;;;6.70;99.90;;;;;;4923489;29;20498;-76
2022/03/04 11:22:51;;;;;;;0.60;0.10;;;6.80;99.90;;;;;;4935053;29;20485;-75
2022/03/04 11:25:22;;;;;;;0.60;0.10;;;6.90;99.90;;;;;;4936395;29;20487;-75
2022/03/04 11:27:52;;;;;;;0.60;0.53;;;8.00;99.90;;;;;;4935409;29;20451;-73
2022/03/04 11:30:32;;;;;;;7.93;2.93;;;7.10;99.90;;;;;;4937941;29;20514;-76
2022/03/04 11:33:20;;;;;;;0.60;0.10;;;7.10;99.90;;;;;;4938004;29;20493;-75
2022/03/04 11:36:09;;;;;;;0.70;0.63;;;7.00;99.90;;;;;;4941269;29;20443;-77
2022/03/04 11:39:10;;;;;;;0.57;0.20;;;7.00;99.90;;;;;;4940936;29;20506;-73
2022/03/04 11:42:00;;;;;;;0.60;0.10;;;7.10;99.90;;;;;;4940106;29;20496;-76
2022/03/04 11:44:29;;;;;;;0.93;0.40;;;7.20;99.90;;;;;;4911755;29;20529;-76
2022/03/04 11:47:02;;;;;;;0.60;0.30;;;7.20;99.90;;;;;;4912212;29;20500;-74
2022/03/04 11:49:33;;;;;;;0.50;0.20;;;7.20;99.90;;;;;;4942229;29;20466;-75
2022/03/04 11:52:34;;;;;;;1.23;1.13;;;7.20;99.90;;;;;;4947721;29;20562;-75
2022/03/04 11:55:22;;;;;;;0.60;0.10;;;7.30;99.90;;;;;;4944655;29;20519;-75
2022/03/04 11:58:01;;;;;;;2.50;2.37;;;7.40;99.90;;;;;;4947559;29;20458;-75
2022/03/04 12:00:37;;;;;;;1.40;1.30;;;7.40;99.90;;;;;;4949600;29;20673;-75
2022/03/04 12:03:19;;;;;;;0.60;0.40;;;7.40;99.90;;;;;;4940304;29;20451;-75
2022/03/04 12:05:48;;;;;;;0.70;0.57;;;7.50;99.90;;;;;;4906629;29;20469;-74
2022/03/04 12:08:18;;;;;;;5.20;1.23;;;7.60;99.90;;;;;;4906618;29;20968;-76
2022/03/04 12:10:50;;;;;;;3.80;0.67;;;7.60;99.90;;;;;;4903006;29;20489;-75
2022/03/04 12:13:20;;;;;;;5.70;3.30;;;7.60;99.90;;;;;;4911849;29;20912;-76
2022/03/04 12:15:55;;;;;;;0.60;0.10;;;7.70;99.90;;;;;;4921025;29;20452;-76
2022/03/04 12:18:36;;;;;;;0.60;0.10;;;7.70;99.90;;;;;;4921842;29;20444;-75
2022/03/04 12:21:13;;;;;;;3.87;2.73;;;7.80;99.90;;;;;;4916006;29;20491;-74
2022/03/04 12:23:53;;;;;;;0.60;0.10;;;7.90;99.90;;;;;;4900299;29;20469;-75
2022/03/04 12:26:42;;;;;;;7.50;2.93;;;8.00;99.90;;;;;;4901405;29;20516;-75
2022/03/04 12:29:13;;;;;;;1.73;1.57;;;8.00;99.90;;;;;;4901472;29;20529;-76
2022/03/04 12:31:44;;;;;;;6.43;4.27;;;8.00;99.90;;;;;;4900637;29;20485;-76
2022/03/04 12:34:20;;;;;;;8.57;2.27;;;7.90;99.90;;;;;;4899954;29;20503;-75
2022/03/04 12:36:50;;;;;;;5.13;2.53;;;7.90;99.90;;;;;;4900085;29;21028;-75
2022/03/04 12:39:20;;;;;;;0.87;0.87;;;7.90;99.90;;;;;;4901025;29;20445;-75
2022/03/04 12:41:54;;;;;;;1.27;1.17;;;7.90;99.90;;;;;;4911078;29;20480;-74
2022/03/04 12:44:22;;;;;;;0.60;0.10;;;8.00;99.90;;;;;;4919437;29;20927;-75
2022/03/04 12:46:49;;;;;;;4.67;3.57;;;8.00;99.90;;;;;;4920152;29;20852;-75
2022/03/04 12:49:19;;;;;;;0.93;0.50;;;8.10;99.90;;;;;;4920250;29;20437;-75
2022/03/04 12:51:47;;;;;;;3.50;1.67;;;8.10;99.90;;;;;;4908351;29;20478;-75
2022/03/04 12:54:18;;;;;;;3.90;3.60;;;8.20;99.90;;;;;;4900431;29;20456;-75
2022/03/04 12:56:54;;;;;;;0.60;0.30;;;8.20;99.90;;;;;;4899776;29;20897;-77
2022/03/04 12:59:22;;;;;;;1.73;1.53;;;8.30;99.90;;;;;;4905470;29;20519;-76
2022/03/04 13:01:51;;;;;;;0.60;0.10;;;9.10;99.90;;;;;;4911332;29;20485;-76
2022/03/04 13:04:21;;;;;;;7.63;2.53;;;8.40;99.90;;;;;;4923753;29;20472;-76
2022/03/04 13:06:57;;;;;;;6.00;3.33;;;8.50;99.90;;;;;;4927252;29;20488;-76
2022/03/04 13:09:25;;;;;;;2.43;2.33;;;8.40;99.90;;;;;;4918663;29;20444;-76
2022/03/04 13:11:54;;;;;;;0.60;0.43;;;8.40;99.90;;;;;;4905759;29;20499;-76
2022/03/04 13:14:24;;;;;;;1.40;1.20;;;8.30;99.90;;;;;;4901866;29;21039;-75
2022/03/04 13:16:53;;;;;;;0.60;0.20;;;8.40;99.90;;;;;;4899136;29;20452;-75